Terminal Aerodrome Forecast
Issued by NWS

Home | Current Version | Previous Version | Text Only | Print | Product List | Glossary On
Versions: 1 2 3 4 5 6 7 8 9 10 11 12 13 14 15 16 17 18 19 20 21
000
FTUS44 KSJT 261700
TAFBBD
TAF
KBBD 261723Z 2618/2718 19012G18KT P6SM SKC
     FM270000 17012KT P6SM SCT120
      TEMPO 2700/2703 P6SM TS BKN050CB
     FM270300 17011KT P6SM SCT250
      TEMPO 2703/2706 P6SM TS BKN050CB
     FM270600 VRB04KT P6SM OVC100
     FM271500 25012KT P6SM SKC=

USA.gov is the U.S. government's official web portal to all federal, state and local government web resources and services.